Terminal Aerodrome Forecast
Issued by NWS

Home | Current Version | Previous Version | Text Only | Print | Product List | Glossary On
Versions: 1 2 3 4 5 6 7 8 9 10 11 12 13 14
000
FTUS43 KMQT 311138
TAFSAW
TAF
KSAW 311138Z 3112/0112 27006KT P6SM SCT070
     FM311400 30010G17KT P6SM SCT060
     FM311700 30011G19KT P6SM -SHRA BKN050
     FM312100 31011G18KT P6SM BKN060
     FM010100 28005KT P6SM SCT060=

USA.gov is the U.S. government's official web portal to all federal, state and local government web resources and services.